Time;durP1;ratioP1;P1;durP2;ratioP2;P2;SDS_P1;SDS_P2;PMS_P1;PMS_P2;Temp;Humidity;BMP_temperature;BMP_pressure;BME280_temperature;BME280_humidity;BME280_pressure;Samples;Min_cycle;Max_cycle;Signal;HPM_P1;HPM_P2
2022/10/09 00:00:44;;;;;;;50.63;13.40;;;;;;;16.96;60.31;100960.63;4939791;29;20039;-78
2022/10/09 00:03:11;;;;;;;34.30;13.27;;;;;;;16.97;60.51;100966.94;4922830;29;20054;-77
2022/10/09 00:05:37;;;;;;;25.80;13.13;;;;;;;16.88;60.54;100958.69;4932376;29;20491;-76
2022/10/09 00:08:02;;;;;;;24.23;12.23;;;;;;;16.86;60.87;100949.00;4932497;29;20071;-78
2022/10/09 00:10:28;;;;;;;25.38;11.13;;;;;;;16.68;60.95;100919.16;4932534;29;20063;-78
2022/10/09 00:12:54;;;;;;;30.10;12.15;;;;;;;16.84;61.35;100942.88;4930948;29;20040;-76
2022/10/09 00:15:19;;;;;;;110.80;19.65;;;;;;;16.53;61.30;100917.09;4930925;29;20050;-77
2022/10/09 00:17:45;;;;;;;37.75;16.58;;;;;;;16.59;61.46;100954.53;4931199;29;20517;-77
2022/10/09 00:20:11;;;;;;;38.42;19.02;;;;;;;16.33;61.21;100913.69;4933263;29;20500;-81
2022/10/09 00:22:37;;;;;;;39.72;19.35;;;;;;;16.47;60.84;100936.75;4933063;29;20050;-79
2022/10/09 00:25:03;;;;;;;35.60;18.58;;;;;;;16.39;60.56;100942.94;4952012;28;20141;-80
2022/10/09 00:27:29;;;;;;;33.42;18.45;;;;;;;16.37;60.83;100936.81;4971532;28;20122;-76
2022/10/09 00:29:54;;;;;;;34.50;17.55;;;;;;;16.22;61.22;100901.22;4972353;28;20403;-77
2022/10/09 00:32:20;;;;;;;32.22;15.90;;;;;;;16.37;61.66;100931.38;4958606;28;20501;-77
2022/10/09 00:34:46;;;;;;;55.33;19.00;;;;;;;16.21;61.97;100902.22;4960507;29;20043;-78
2022/10/09 00:37:12;;;;;;;83.60;19.30;;;;;;;16.37;61.57;100928.66;4960257;28;20039;-78
2022/10/09 00:39:37;;;;;;;46.72;18.85;;;;;;;16.37;61.50;100928.66;4963702;28;20030;-76
2022/10/09 00:42:03;;;;;;;33.90;18.95;;;;;;;16.29;61.10;100928.59;4952110;28;20050;-76
2022/10/09 00:44:52;;;;;;;30.20;17.48;;;;;;;16.23;61.11;100919.22;4952626;28;20035;-77
2022/10/09 00:47:18;;;;;;;48.13;18.38;;;;;;;16.29;61.10;100942.16;4952492;29;20079;-77
2022/10/09 00:49:43;;;;;;;47.58;21.27;;;;;;;16.18;60.34;100936.94;4952336;28;20042;-77
2022/10/09 00:52:10;;;;;;;35.15;20.42;;;;;;;16.17;60.11;100944.25;4951937;28;20402;-78
2022/10/09 00:54:39;;;;;;;36.08;21.17;;;;;;;16.06;59.67;100922.75;4951747;28;20035;-78
2022/10/09 00:57:06;;;;;;;40.17;22.73;;;;;;;16.06;59.54;100939.03;4951968;28;20034;-78
2022/10/09 00:59:32;;;;;;;33.88;21.90;;;;;;;16.00;59.87;100942.34;4952008;28;20027;-78
2022/10/09 01:01:57;;;;;;;43.10;21.50;;;;;;;15.83;60.03;100902.47;4951704;28;20095;-75
2022/10/09 01:04:23;;;;;;;36.67;22.55;;;;;;;16.03;59.79;100933.91;4952022;28;20513;-76
2022/10/09 01:07:00;;;;;;;58.70;27.15;;;;;;;15.96;59.48;100938.22;4951802;29;20038;-76
2022/10/09 01:09:37;;;;;;;55.38;26.35;;;;;;;15.97;59.63;100926.38;4950689;29;20450;-77
2022/10/09 01:12:25;;;;;;;63.40;31.65;;;;;;;15.66;59.45;100909.56;4951764;28;20151;-77
2022/10/09 01:14:56;;;;;;;66.05;30.60;;;;;;;15.68;59.42;100928.41;4951931;28;20032;-77
2022/10/09 01:17:51;;;;;;;51.08;30.10;;;;;;;15.66;59.32;100924.97;4951402;28;20027;-76
2022/10/09 01:20:38;;;;;;;53.22;27.92;;;;;;;15.72;59.46;100921.66;4962468;28;20038;-78
2022/10/09 01:23:19;;;;;;;58.35;29.85;;;;;;;15.66;58.76;100919.53;4951698;29;20094;-75
2022/10/09 01:26:01;;;;;;;48.55;26.95;;;;;;;15.56;58.97;100924.19;4951023;28;20118;-79
2022/10/09 01:28:29;;;;;;;55.40;28.10;;;;;;;15.52;58.88;100925.47;4951260;28;20035;-76
2022/10/09 01:30:58;;;;;;;53.10;27.00;;;;;;;15.49;59.04;100912.22;4948965;29;20031;-77
2022/10/09 01:33:23;;;;;;;46.80;26.40;;;;;;;15.29;58.88;100880.75;4950228;29;20055;-77
2022/10/09 01:35:50;;;;;;;56.40;26.83;;;;;;;15.51;58.78;100907.47;4951382;28;20073;-78
2022/10/09 01:38:17;;;;;;;43.58;26.02;;;;;;;15.57;58.61;100915.03;4951169;28;20068;-77
2022/10/09 01:40:43;;;;;;;45.33;23.98;;;;;;;15.62;58.65;100918.16;4951369;28;20031;-77
2022/10/09 01:43:08;;;;;;;48.45;23.67;;;;;;;15.49;58.59;100904.94;4950868;29;20490;-78
2022/10/09 01:45:43;;;;;;;50.40;23.92;;;;;;;15.58;58.49;100922.16;4949134;29;20051;-77
2022/10/09 01:48:15;;;;;;;46.17;24.10;;;;;;;15.45;58.60;100910.75;4951368;28;20046;-77
2022/10/09 01:50:44;;;;;;;39.40;23.15;;;;;;;15.49;58.50;100918.50;4953546;28;20035;-79
2022/10/09 01:53:16;;;;;;;42.75;23.95;;;;;;;15.31;58.57;100881.44;4961360;28;20050;-78
2022/10/09 01:56:10;;;;;;;47.67;24.45;;;;;;;15.53;58.53;100908.22;4959864;28;20467;-78
2022/10/09 01:58:43;;;;;;;97.90;27.83;;;;;;;15.51;58.93;100912.91;4953662;29;20499;-77
2022/10/09 02:01:20;;;;;;;51.90;23.77;;;;;;;15.53;59.00;100910.91;4950667;28;20050;-77
2022/10/09 02:03:49;;;;;;;56.10;24.10;;;;;;;15.44;59.11;100909.06;4951224;28;20032;-78
2022/10/09 02:06:16;;;;;;;51.45;23.73;;;;;;;15.42;59.11;100922.75;4951054;28;20035;-77
2022/10/09 02:08:45;;;;;;;52.80;23.25;;;;;;;15.47;59.35;100919.63;4951194;28;20050;-79
2022/10/09 02:11:15;;;;;;;99.20;26.35;;;;;;;15.48;59.55;100926.75;4950854;28;20035;-79
2022/10/09 02:13:44;;;;;;;45.55;22.58;;;;;;;15.42;59.30;100930.03;4950543;28;20059;-78
2022/10/09 02:16:20;;;;;;;41.80;24.02;;;;;;;15.30;59.41;100904.13;4950872;28;20062;-78
2022/10/09 02:19:01;;;;;;;40.92;21.77;;;;;;;15.46;59.24;100920.63;4950884;28;20023;-79
2022/10/09 02:21:46;;;;;;;39.72;22.48;;;;;;;15.40;59.11;100918.50;4950924;28;20459;-78
2022/10/09 02:24:16;;;;;;;29.25;20.10;;;;;;;15.37;58.69;100914.22;4950379;28;20057;-78
2022/10/09 02:26:41;;;;;;;44.45;17.52;;;;;;;15.40;59.05;100929.34;4950907;28;20058;-77
2022/10/09 02:29:08;;;;;;;38.72;18.20;;;;;;;15.41;59.05;100920.22;4950729;28;20125;-77
2022/10/09 02:31:36;;;;;;;54.28;18.40;;;;;;;15.15;58.54;100887.50;4950739;28;20114;-77
2022/10/09 02:34:09;;;;;;;35.92;17.33;;;;;;;15.18;58.77;100892.63;4950632;28;20039;-77
2022/10/09 02:36:35;;;;;;;31.50;16.50;;;;;;;15.15;58.70;100891.06;4950385;28;20392;-78
2022/10/09 02:39:02;;;;;;;51.50;16.98;;;;;;;15.25;58.71;100916.28;4950732;28;20035;-77
2022/10/09 02:41:27;;;;;;;40.75;15.75;;;;;;;15.37;58.59;100929.63;4950649;28;20035;-77
2022/10/09 02:43:53;;;;;;;39.45;16.98;;;;;;;15.36;58.33;100922.50;4950601;28;20474;-77
2022/10/09 02:46:18;;;;;;;40.50;17.08;;;;;;;15.34;57.86;100932.63;4952229;28;20145;-79
2022/10/09 02:48:44;;;;;;;25.08;17.00;;;;;;;15.24;57.99;100924.53;4958939;28;20499;-77
2022/10/09 02:51:09;;;;;;;27.58;19.33;;;;;;;15.25;57.77;100932.53;4953900;28;20028;-77
2022/10/09 02:53:35;;;;;;;46.95;23.15;;;;;;;15.02;57.42;100904.06;4954447;28;20035;-78
2022/10/09 02:56:01;;;;;;;54.30;26.05;;;;;;;15.19;57.27;100937.69;4954339;28;20538;-77
2022/10/09 02:58:29;;;;;;;64.65;30.55;;;;;;;15.16;57.07;100933.41;4953934;28;20097;-77
2022/10/09 03:00:54;;;;;;;72.60;33.15;;;;;;;15.21;56.79;100947.38;4955113;28;20023;-77
2022/10/09 03:03:20;;;;;;;56.50;34.45;;;;;;;15.17;56.73;100945.94;4954269;28;20031;-77
2022/10/09 03:05:46;;;;;;;73.47;34.75;;;;;;;15.20;56.52;100942.09;4954367;28;20454;-77
2022/10/09 03:08:12;;;;;;;76.70;36.30;;;;;;;15.16;56.86;100938.84;4955130;29;20658;-77
2022/10/09 03:10:39;;;;;;;67.38;36.20;;;;;;;15.19;56.43;100949.38;4962696;28;20521;-79
2022/10/09 03:13:05;;;;;;;67.03;35.78;;;;;;;15.06;56.44;100931.72;4962641;28;20034;-79
2022/10/09 03:15:36;;;;;;;57.22;30.25;;;;;;;15.09;56.75;100956.66;4958593;28;20042;-77
2022/10/09 03:18:02;;;;;;;57.78;32.95;;;;;;;15.01;57.06;100937.59;4953693;28;20027;-77
2022/10/09 03:20:30;;;;;;;67.53;35.22;;;;;;;15.02;57.19;100947.41;4953768;28;20855;-77
2022/10/09 03:22:56;;;;;;;60.90;31.75;;;;;;;15.06;57.41;100964.22;4953571;28;20673;-78
2022/10/09 03:25:21;;;;;;;67.57;31.17;;;;;;;15.03;57.07;100970.81;4953456;28;20047;-77
2022/10/09 03:27:47;;;;;;;56.03;31.05;;;;;;;14.94;57.47;100957.25;4953774;28;20041;-77
2022/10/09 03:30:12;;;;;;;62.80;29.38;;;;;;;14.98;57.48;100973.06;4953375;28;20039;-78
2022/10/09 03:32:38;;;;;;;54.28;28.75;;;;;;;14.99;57.53;100972.06;4953357;28;20038;-76
2022/10/09 03:35:04;;;;;;;81.72;28.85;;;;;;;15.00;57.62;100971.09;4953614;28;20034;-77
2022/10/09 03:37:30;;;;;;;84.68;31.33;;;;;;;14.97;57.59;100973.22;4953330;28;20027;-77
2022/10/09 03:39:56;;;;;;;59.67;28.85;;;;;;;14.83;57.71;100952.84;4953395;28;20042;-78
2022/10/09 03:42:21;;;;;;;51.10;27.63;;;;;;;14.89;57.86;100967.69;4953217;28;20031;-78
2022/10/09 03:44:46;;;;;;;40.63;24.40;;;;;;;14.82;57.80;100959.28;4953230;28;20450;-78
2022/10/09 03:47:12;;;;;;;42.92;20.48;;;;;;;14.74;57.68;100947.47;4953156;28;20045;-77
2022/10/09 03:49:37;;;;;;;46.75;22.52;;;;;;;14.77;57.65;100950.72;4953044;28;20041;-78
2022/10/09 03:52:03;;;;;;;47.38;22.73;;;;;;;14.91;57.66;100977.38;4953211;28;20042;-77
2022/10/09 03:54:28;;;;;;;43.20;21.08;;;;;;;14.93;57.77;100974.50;4953034;28;20039;-78
2022/10/09 03:56:54;;;;;;;42.42;23.30;;;;;;;14.93;58.01;100975.38;4952984;28;20035;-77
2022/10/09 03:59:19;;;;;;;39.08;22.75;;;;;;;14.94;57.89;100977.09;4931066;29;20520;-77
2022/10/09 04:01:45;;;;;;;36.92;22.08;;;;;;;14.87;57.91;100970.53;4931221;29;20040;-77
2022/10/09 04:04:10;;;;;;;48.03;21.30;;;;;;;14.88;57.89;100979.50;4931013;29;20043;-77
2022/10/09 04:06:35;;;;;;;41.15;22.05;;;;;;;14.87;57.94;100984.06;4915533;29;20046;-77
2022/10/09 04:09:01;;;;;;;30.55;18.52;;;;;;;14.85;57.75;100977.94;4931123;29;20043;-77
2022/10/09 04:11:26;;;;;;;52.10;18.52;;;;;;;14.82;57.58;100967.41;4931326;29;20392;-76
2022/10/09 04:13:52;;;;;;;146.10;24.38;;;;;;;14.67;57.63;100944.47;4932034;29;20042;-78
2022/10/09 04:16:17;;;;;;;52.58;16.77;;;;;;;14.83;57.67;100974.50;4940213;29;20078;-76
2022/10/09 04:18:44;;;;;;;29.73;17.40;;;;;;;14.84;57.65;100969.94;4931702;29;20123;-77
2022/10/09 04:21:11;;;;;;;41.28;16.80;;;;;;;14.77;57.39;100964.25;4931366;29;20028;-76
2022/10/09 04:23:37;;;;;;;48.17;17.48;;;;;;;14.76;57.67;100978.81;4931992;29;20067;-76
2022/10/09 04:26:02;;;;;;;38.72;17.50;;;;;;;14.68;57.68;100982.22;4935878;29;20044;-76
2022/10/09 04:28:29;;;;;;;40.25;18.33;;;;;;;14.69;58.05;100977.66;4941715;29;20119;-77
2022/10/09 04:30:58;;;;;;;41.90;18.25;;;;;;;14.75;57.73;100981.66;4956769;29;20066;-78
2022/10/09 04:33:25;;;;;;;31.80;16.92;;;;;;;14.79;57.77;100989.34;4956735;28;20483;-75
2022/10/09 04:35:52;;;;;;;45.88;17.48;;;;;;;14.85;57.57;100980.66;4953246;28;20034;-76
2022/10/09 04:38:19;;;;;;;45.70;18.27;;;;;;;14.91;57.27;100985.50;4953414;28;20035;-77
2022/10/09 04:40:53;;;;;;;34.65;17.52;;;;;;;14.93;56.97;100983.50;4953248;28;20169;-77
2022/10/09 04:43:19;;;;;;;32.53;16.80;;;;;;;15.00;56.89;100987.34;4953335;28;20066;-76
2022/10/09 04:45:44;;;;;;;37.88;16.52;;;;;;;15.05;56.64;100985.03;4953017;28;20039;-78
2022/10/09 04:48:10;;;;;;;25.48;15.38;;;;;;;14.83;56.53;100947.44;4953296;28;20027;-76
2022/10/09 04:50:38;;;;;;;30.15;15.55;;;;;;;15.08;56.46;100984.75;4953365;28;20031;-77
2022/10/09 04:53:03;;;;;;;29.45;16.25;;;;;;;15.07;56.66;100974.94;4952841;28;20027;-76
2022/10/09 04:55:29;;;;;;;27.45;15.23;;;;;;;15.19;56.48;100994.59;4951634;29;20538;-77
2022/10/09 04:57:54;;;;;;;40.58;16.65;;;;;;;15.22;56.18;100992.44;4952732;28;20031;-76
2022/10/09 05:00:20;;;;;;;33.03;17.52;;;;;;;15.20;56.13;100971.88;4952734;28;20410;-76
2022/10/09 05:02:45;;;;;;;35.08;16.50;;;;;;;15.27;55.85;100998.28;4952993;28;20035;-77
2022/10/09 05:05:10;;;;;;;127.53;24.77;;;;;;;15.23;55.99;100977.88;4953035;28;20030;-77
2022/10/09 05:07:37;;;;;;;71.00;17.63;;;;;;;15.06;56.02;100940.72;4952844;28;20463;-76
2022/10/09 05:10:03;;;;;;;43.50;18.65;;;;;;;15.23;55.96;100977.00;4952713;28;20529;-78
2022/10/09 05:12:28;;;;;;;39.80;18.73;;;;;;;15.24;56.55;100981.44;4952062;28;20031;-77
2022/10/09 05:14:54;;;;;;;40.67;18.95;;;;;;;15.32;55.88;100992.41;4952256;28;20475;-78
2022/10/09 05:17:19;;;;;;;160.35;25.60;;;;;;;15.33;56.09;100995.97;4952665;28;20027;-77
2022/10/09 05:19:45;;;;;;;179.02;26.95;;;;;;;15.35;55.92;101002.94;4952487;28;20720;-77
2022/10/09 05:22:10;;;;;;;55.47;21.15;;;;;;;15.15;56.04;100964.22;4952643;28;20534;-76
2022/10/09 05:24:36;;;;;;;54.05;22.40;;;;;;;15.40;55.48;100991.69;4952715;28;20507;-76
2022/10/09 05:27:01;;;;;;;58.92;22.92;;;;;;;15.47;55.47;101001.81;4952616;28;20039;-76
2022/10/09 05:29:26;;;;;;;53.13;21.77;;;;;;;15.45;55.12;101002.94;4952311;28;20031;-75
2022/10/09 05:31:52;;;;;;;52.38;22.67;;;;;;;15.50;55.15;101004.25;4952524;29;20058;-76
2022/10/09 05:34:17;;;;;;;44.00;23.98;;;;;;;15.56;55.20;101013.66;4952440;28;20067;-76
2022/10/09 05:36:43;;;;;;;45.88;24.27;;;;;;;15.64;54.89;101013.75;4953147;28;20038;-75
2022/10/09 05:39:08;;;;;;;56.75;24.63;;;;;;;15.64;55.05;101017.31;4952523;28;20030;-78
2022/10/09 05:41:34;;;;;;;58.72;24.50;;;;;;;15.67;54.84;101008.88;4951660;29;20031;-77
2022/10/09 05:44:00;;;;;;;66.00;29.65;;;;;;;15.76;54.68;101020.69;4958800;28;20032;-75
2022/10/09 05:46:26;;;;;;;50.53;25.50;;;;;;;15.86;54.70;101012.53;4954092;28;20042;-75
2022/10/09 05:48:57;;;;;;;49.88;25.05;;;;;;;15.90;54.33;101017.50;4955107;28;20035;-75
2022/10/09 05:51:24;;;;;;;46.78;26.55;;;;;;;15.92;54.50;101029.06;4953423;28;20766;-76
2022/10/09 05:53:50;;;;;;;76.10;26.20;;;;;;;15.98;54.78;101025.75;4952310;28;20038;-76
2022/10/09 05:56:17;;;;;;;50.75;26.75;;;;;;;16.07;54.91;101024.84;4952257;28;20027;-75
2022/10/09 05:58:44;;;;;;;44.25;23.75;;;;;;;16.13;54.62;101024.25;4951863;28;20031;-76
2022/10/09 06:01:10;;;;;;;47.97;23.50;;;;;;;16.19;54.48;101036.34;4952602;28;20038;-77
2022/10/09 06:03:36;;;;;;;59.38;24.95;;;;;;;16.00;54.38;100998.47;4940961;28;20027;-77
2022/10/09 06:06:04;;;;;;;51.88;25.23;;;;;;;16.24;54.51;101034.03;4943669;29;20062;-76
2022/10/09 06:08:32;;;;;;;44.95;23.48;;;;;;;16.30;54.57;101050.56;4940769;29;20063;-77
2022/10/09 06:10:57;;;;;;;40.47;19.90;;;;;;;16.41;54.92;101045.94;4936720;29;20035;-79
2022/10/09 06:13:23;;;;;;;54.22;21.40;;;;;;;16.48;54.68;101041.63;4936289;29;20549;-75
2022/10/09 06:15:52;;;;;;;51.90;25.38;;;;;;;16.54;54.60;101041.03;4931610;29;20082;-77
2022/10/09 06:18:18;;;;;;;42.72;22.73;;;;;;;16.59;54.61;101038.72;4931814;29;20027;-78
2022/10/09 06:20:58;;;;;;;37.08;18.95;;;;;;;16.57;54.63;101019.88;4931667;29;20035;-76
2022/10/09 06:23:23;;;;;;;46.28;20.42;;;;;;;16.62;54.67;101008.53;4931460;29;20041;-80
2022/10/09 06:26:11;;;;;;;40.45;18.77;;;;;;;16.90;54.51;101042.78;4935403;29;20114;-77
2022/10/09 06:28:37;;;;;;;44.38;18.65;;;;;;;16.99;54.29;101047.28;4935547;29;20038;-77
2022/10/09 06:31:11;;;;;;;67.53;39.60;;;;;;;17.04;54.03;101039.50;4935914;29;20391;-76
2022/10/09 06:33:39;;;;;;;54.25;23.77;;;;;;;17.18;53.80;101038.09;4940258;29;20035;-78
2022/10/09 06:36:08;;;;;;;46.55;19.48;;;;;;;17.27;53.97;101046.19;4951987;29;20038;-78
2022/10/09 06:38:34;;;;;;;47.47;19.80;;;;;;;17.31;53.88;101035.81;4954766;28;20035;-78
2022/10/09 06:41:01;;;;;;;36.65;17.70;;;;;;;17.40;53.82;101048.47;4949538;29;20554;-77
2022/10/09 06:43:26;;;;;;;44.15;16.75;;;;;;;17.37;53.87;101022.44;4935076;29;20491;-78
2022/10/09 06:45:52;;;;;;;99.50;20.45;;;;;;;17.51;53.67;101020.16;4935067;29;20042;-79
2022/10/09 06:48:17;;;;;;;70.78;17.52;;;;;;;17.76;53.52;101041.97;4941542;29;20049;-76
2022/10/09 06:50:43;;;;;;;47.67;16.83;;;;;;;17.83;53.34;101043.00;4935079;29;20038;-76
2022/10/09 06:53:08;;;;;;;62.10;18.95;;;;;;;17.73;53.16;101009.63;4942377;29;20042;-77
2022/10/09 06:55:34;;;;;;;40.05;15.43;;;;;;;17.88;53.02;101031.66;4954216;28;20512;-77
2022/10/09 06:57:59;;;;;;;43.72;16.90;;;;;;;18.15;53.13;101057.81;4954523;28;20027;-76
2022/10/09 07:00:25;;;;;;;35.90;15.77;;;;;;;18.25;52.73;101053.09;4956122;28;20038;-75
2022/10/09 07:02:51;;;;;;;32.03;15.15;;;;;;;18.36;52.52;101056.38;4959212;28;20186;-77
2022/10/09 07:05:16;;;;;;;26.67;14.88;;;;;;;18.44;52.35;101050.94;4964602;28;20059;-76
2022/10/09 07:07:42;;;;;;;31.73;16.10;;;;;;;18.51;52.37;101053.88;4959875;29;20035;-78
2022/10/09 07:10:08;;;;;;;42.25;19.50;;;;;;;18.57;52.45;101052.38;4955411;28;20039;-76
2022/10/09 07:12:37;;;;;;;40.95;24.45;;;;;;;18.65;52.22;101058.72;4954539;28;20062;-77
2022/10/09 07:15:05;;;;;;;69.90;28.05;;;;;;;18.77;51.88;101071.00;4954103;28;20045;-76
2022/10/09 07:17:30;;;;;;;62.72;30.42;;;;;;;18.86;52.12;101066.41;4950787;28;20023;-75
2022/10/09 07:19:56;;;;;;;57.13;35.08;;;;;;;18.92;51.62;101066.59;4934742;28;20031;-76
2022/10/09 07:22:21;;;;;;;64.50;39.03;;;;;;;18.91;51.16;101061.31;4934985;29;20075;-77
2022/10/09 07:24:49;;;;;;;77.45;36.97;;;;;;;18.99;51.37;101064.03;4934835;29;20059;-76
2022/10/09 07:27:14;;;;;;;55.35;36.28;;;;;;;19.01;51.32;101062.00;4934329;29;20558;-77
2022/10/09 07:29:41;;;;;;;74.60;44.75;;;;;;;19.08;50.88;101063.03;4943339;29;20039;-78
2022/10/09 07:32:06;;;;;;;68.35;41.35;;;;;;;19.11;50.34;101068.13;4945873;29;20054;-77
2022/10/09 07:34:31;;;;;;;61.92;40.30;;;;;;;19.07;49.76;101064.06;4953251;28;20031;-77
2022/10/09 07:36:57;;;;;;;73.85;39.40;;;;;;;19.09;49.98;101055.69;4942133;29;20038;-75
2022/10/09 07:39:22;;;;;;;68.00;40.22;;;;;;;19.19;49.96;101064.56;4934436;29;20035;-78
2022/10/09 07:41:50;;;;;;;68.95;41.20;;;;;;;19.25;49.46;101063.91;4934427;29;20032;-77
2022/10/09 07:44:16;;;;;;;62.17;39.70;;;;;;;19.26;49.25;101050.09;4934120;29;20042;-75
2022/10/09 07:46:42;;;;;;;66.28;37.25;;;;;;;19.24;49.13;101040.38;4933883;29;20032;-76
2022/10/09 07:49:07;;;;;;;75.90;40.45;;;;;;;19.43;49.10;101049.09;4933690;29;20038;-76
2022/10/09 07:51:33;;;;;;;68.60;35.70;;;;;;;19.59;48.94;101050.09;4934191;29;20031;-75
2022/10/09 07:54:00;;;;;;;55.15;34.50;;;;;;;19.66;48.85;101046.53;4933889;29;20060;-77
2022/10/09 07:56:31;;;;;;;56.22;31.42;;;;;;;19.85;48.27;101043.38;4934299;29;20027;-76
2022/10/09 07:59:00;;;;;;;63.17;32.10;;;;;;;19.94;47.93;101041.47;4933888;29;20411;-77
2022/10/09 08:01:27;;;;;;;46.58;28.85;;;;;;;20.06;47.75;101040.06;4933839;29;20095;-75
2022/10/09 08:03:53;;;;;;;65.88;26.30;;;;;;;20.07;47.43;101019.94;4933907;29;20042;-76
2022/10/09 08:06:18;;;;;;;45.13;22.63;;;;;;;20.37;47.27;101038.28;4933489;29;20395;-75
2022/10/09 08:08:44;;;;;;;40.13;20.00;;;;;;;20.54;46.11;101031.72;4947599;29;20063;-76
2022/10/09 08:11:12;;;;;;;49.33;15.95;;;;;;;20.71;46.12;101037.91;4952731;28;20046;-76
2022/10/09 08:13:38;;;;;;;23.88;6.97;;;;;;;20.81;44.66;101021.28;4953127;28;20035;-74
2022/10/09 08:16:04;;;;;;;21.58;10.05;;;;;;;21.07;43.90;101025.34;4952464;29;20601;-74
2022/10/09 08:18:29;;;;;;;18.98;4.55;;;;;;;21.30;42.79;101039.06;4955238;28;20053;-75
2022/10/09 08:21:03;;;;;;;22.50;3.72;;;;;;;21.48;41.79;101035.97;4955819;29;20484;-75
2022/10/09 08:23:29;;;;;;;18.75;3.33;;;;;;;21.60;41.09;101024.41;4955410;29;20078;-75
2022/10/09 08:25:54;;;;;;;17.67;4.07;;;;;;;21.73;40.47;101036.59;4952377;29;20087;-75
2022/10/09 08:28:20;;;;;;;47.03;4.55;;;;;;;21.85;40.76;101021.41;4952195;28;20062;-75
2022/10/09 08:30:46;;;;;;;26.02;4.47;;;;;;;21.90;40.81;101033.50;4952056;29;20529;-76
2022/10/09 08:33:11;;;;;;;21.92;3.13;;;;;;;22.00;40.56;101025.03;4950849;29;20071;-77
2022/10/09 08:35:37;;;;;;;19.30;3.58;;;;;;;22.13;40.21;101025.22;4953494;29;20137;-76
2022/10/09 08:38:02;;;;;;;10.32;3.38;;;;;;;22.12;39.92;100996.09;4954102;29;20046;-77
2022/10/09 08:40:54;;;;;;;61.25;7.07;;;;;;;22.34;40.12;101011.56;4952274;29;20486;-77
2022/10/09 08:43:30;;;;;;;24.17;4.70;;;;;;;22.31;40.22;100979.06;4952270;29;20532;-76
2022/10/09 08:45:59;;;;;;;11.60;4.00;;;;;;;22.64;39.76;100998.63;4952231;29;20039;-75
2022/10/09 08:48:27;;;;;;;16.15;4.25;;;;;;;22.73;39.63;101012.06;4951493;29;20042;-76
2022/10/09 08:50:56;;;;;;;30.50;5.25;;;;;;;22.78;39.55;100997.78;4951848;29;20027;-76
2022/10/09 08:53:39;;;;;;;22.08;3.90;;;;;;;22.95;39.22;101010.19;4951882;29;20805;-76
2022/10/09 08:56:10;;;;;;;15.95;4.32;;;;;;;22.98;39.22;101008.94;4952087;29;20035;-77
2022/10/09 08:58:38;;;;;;;24.30;5.07;;;;;;;22.99;39.56;100996.94;4951542;29;20023;-77
2022/10/09 09:01:28;;;;;;;19.80;3.83;;;;;;;22.92;39.50;100983.16;4952052;29;20066;-76
2022/10/09 09:04:14;;;;;;;27.92;4.60;;;;;;;23.07;38.74;100999.53;4951610;29;20037;-78
2022/10/09 09:06:49;;;;;;;21.15;4.60;;;;;;;23.02;38.52;100982.81;4951834;29;20027;-77
2022/10/09 09:09:57;;;;;;;11.40;4.18;;;;;;;23.26;39.05;101012.59;4932516;29;20028;-77
2022/10/09 09:12:36;;;;;;;43.70;6.13;;;;;;;23.43;39.14;101008.53;4932387;29;20059;-77
2022/10/09 09:15:39;;;;;;;19.65;4.50;;;;;;;23.59;38.46;101005.50;4932152;29;20127;-77
2022/10/09 09:18:31;;;;;;;;;;;;;;;23.68;38.42;100997.94;4932622;29;20019;-77
2022/10/09 09:21:27;;;;;;;13.77;3.85;;;;;;;23.72;38.13;100999.25;4932485;29;19988;-77
2022/10/09 09:23:54;;;;;;;19.33;4.10;;;;;;;23.82;37.98;100997.81;4891614;29;20056;-76
2022/10/09 09:26:22;;;;;;;11.68;3.58;;;;;;;23.91;37.58;101001.28;4891940;29;20437;-77
2022/10/09 09:28:54;;;;;;;16.98;3.63;;;;;;;23.99;37.53;100997.50;4891801;29;20177;-76
2022/10/09 09:31:22;;;;;;;9.13;3.75;;;;;;;23.85;37.64;100949.88;4892125;29;20033;-77
2022/10/09 09:34:33;;;;;;;21.70;4.78;;;;;;;24.22;37.05;100992.56;4891454;29;20059;-76
2022/10/09 09:36:59;;;;;;;10.07;3.65;;;;;;;24.32;36.80;100987.53;4857772;29;20044;-76
2022/10/09 09:39:27;;;;;;;9.82;3.83;;;;;;;24.34;37.10;100989.03;4860953;29;20042;-78
2022/10/09 09:42:01;;;;;;;5.53;3.75;;;;;;;24.38;36.69;100987.56;4858623;29;20053;-78
2022/10/09 09:44:29;;;;;;;20.00;6.05;;;;;;;24.25;36.86;100948.16;4854582;29;20143;-79
2022/10/09 09:46:56;;;;;;;16.02;3.63;;;;;;;24.57;37.05;100988.69;4854098;29;20053;-77
2022/10/09 09:49:27;;;;;;;12.57;4.95;;;;;;;24.65;36.71;100988.50;4853993;29;20524;-76
2022/10/09 09:51:55;;;;;;;35.33;4.60;;;;;;;24.73;36.37;100991.06;4838544;29;20037;-76
2022/10/09 09:54:31;;;;;;;12.77;3.85;;;;;;;24.76;36.61;100978.81;4853941;29;20057;-76
2022/10/09 09:56:58;;;;;;;98.18;9.18;;;;;;;24.90;36.67;100975.88;4854160;29;20034;-77
2022/10/09 09:59:37;;;;;;;16.10;4.53;;;;;;;25.08;36.43;100983.53;4853851;29;20038;-77
2022/10/09 10:02:11;;;;;;;7.88;3.60;;;;;;;25.16;36.30;100976.97;4891202;29;20052;-77
2022/10/09 10:04:50;;;;;;;23.52;4.93;;;;;;;25.07;36.40;100947.97;4890897;29;20060;-77
2022/10/09 10:07:36;;;;;;;24.88;4.82;;;;;;;25.40;36.30;100992.84;4906406;29;20035;-77
2022/10/09 10:10:01;;;;;;;16.55;4.10;;;;;;;25.38;36.01;100967.44;4950627;29;20038;-77
2022/10/09 10:12:28;;;;;;;6.53;4.05;;;;;;;25.52;36.10;100974.66;4951038;28;20027;-77
2022/10/09 10:14:53;;;;;;;123.78;12.35;;;;;;;25.44;36.34;100937.13;4948080;29;20043;-77
2022/10/09 10:17:27;;;;;;;85.03;8.60;;;;;;;25.84;36.14;100973.75;4950713;29;20023;-77
2022/10/09 10:19:53;;;;;;;19.30;5.72;;;;;;;26.04;35.37;100990.22;4950837;28;20043;-76
2022/10/09 10:22:26;;;;;;;11.93;3.85;;;;;;;25.87;35.07;100967.78;4950627;28;20057;-77
2022/10/09 10:24:57;;;;;;;9.65;4.20;;;;;;;25.96;35.41;100968.44;4950360;28;20062;-78
2022/10/09 10:27:40;;;;;;;20.45;4.97;;;;;;;26.14;35.60;100973.25;4950556;28;20046;-77
2022/10/09 10:30:12;;;;;;;37.25;6.47;;;;;;;26.15;35.33;100980.41;4950561;28;20031;-76
2022/10/09 10:32:43;;;;;;;13.47;4.37;;;;;;;26.04;35.45;100986.63;4950323;28;20030;-77
2022/10/09 10:35:16;;;;;;;15.95;4.97;;;;;;;25.96;35.30;100980.28;4950193;28;20035;-77
2022/10/09 10:38:12;;;;;;;19.15;5.60;;;;;;;25.84;35.66;100978.44;4949867;29;20038;-77
2022/10/09 10:41:00;;;;;;;9.40;4.22;;;;;;;25.68;35.77;100985.25;4950503;29;20039;-76
2022/10/09 10:43:46;;;;;;;19.95;5.22;;;;;;;25.31;36.25;100945.41;4951221;29;20549;-77
2022/10/09 10:46:29;;;;;;;17.23;5.38;;;;;;;25.35;36.79;100959.63;4949213;29;20837;-76
2022/10/09 10:48:57;;;;;;;14.55;5.20;;;;;;;25.44;37.07;100953.66;4950396;28;20027;-77
2022/10/09 10:51:29;;;;;;;13.65;4.90;;;;;;;25.60;36.89;100960.66;4950318;28;20507;-77
2022/10/09 10:54:06;;;;;;;43.07;5.77;;;;;;;25.58;36.82;100932.47;4954156;29;20035;-76
2022/10/09 10:56:47;;;;;;;18.00;4.97;;;;;;;25.78;36.09;100962.72;4955896;28;20039;-77
2022/10/09 10:59:27;;;;;;;30.92;5.85;;;;;;;25.79;36.33;100953.41;4953273;28;20995;-76
2022/10/09 11:02:15;;;;;;;19.38;5.68;;;;;;;25.87;36.37;100956.75;4950173;28;20046;-79
2022/10/09 11:04:40;;;;;;;17.75;5.70;;;;;;;26.07;36.72;100950.34;4950266;29;20027;-78
2022/10/09 11:07:34;;;;;;;16.67;4.88;;;;;;;26.28;35.98;100939.03;4950326;29;20038;-79
2022/10/09 11:10:13;;;;;;;21.83;5.75;;;;;;;26.44;35.45;100939.41;4950662;28;20443;-77
2022/10/09 11:13:03;;;;;;;21.85;4.90;;;;;;;26.32;34.92;100943.91;4953688;29;20363;-79
2022/10/09 11:15:54;;;;;;;20.55;4.38;;;;;;;26.11;35.52;100957.13;4954032;29;20027;-76
2022/10/09 11:18:28;;;;;;;30.80;5.68;;;;;;;26.04;35.38;100950.78;4953353;28;20410;-77
2022/10/09 11:21:14;;;;;;;53.45;6.78;;;;;;;26.11;35.77;100951.63;4953419;29;20090;-74
2022/10/09 11:23:58;;;;;;;86.20;8.35;;;;;;;25.90;35.77;100912.22;4953152;29;20043;-74